Skip Navigation LinksHome page > Weather > Current weather Skip Navigation Links

Current Weather

New Tokyo International (Narita), Tokyo

For information only: do not use for flight planning or navigation.
Latest weather
Observation time Wednesday, July 23, 2014 6:00 AM JST
Local time Wednesday, July 23, 2014 6:23 AM JST
Flight conditions Instrument Meteorological Conditions
Winds
Wind direction variable
Wind speed 2 mph
Visibility 2.8 mi.
Present weather mist
Sky condition
Ceiling unlimited
Temperature 73°F
Dewpoint 72°F
Altimeter 29.71 in.Hg
Derived measurements
Relative humidity 94%
Density altitude 1531 ft.
METAR RJAA 222100Z VRB02KT 4500 R16R/P1800N R16L/1700U BR NSC 23/22 Q1006 BECMG 6000 NSW RMK A2972

Settings

Location code

InnerDrive.Weather 4.0.5294.0 Release CLR 4.0.30319.34014
Copyright ©2014 Inner Drive Technology. All rights reserved. Portions Copyright ©1986-2014 David Braverman.

Find weather

Site navigation


Skip Navigation Links

Place info

Page info

PayPal - The safer, easier way to pay online!

Return home.

Copyright ©2014 Inner Drive Technology. Purveyors of fine, hand-crafted computer software. Page printed 2014-07-22T21:23:16 UTC.